createdAt,value
2018-12-22T00:00:28.846Z,932.68
2018-12-22T00:01:28.858Z,932.74
2018-12-22T00:02:28.885Z,932.71
2018-12-22T00:03:28.897Z,932.82
2018-12-22T00:04:28.836Z,932.86
2018-12-22T00:05:28.832Z,932.83
2018-12-22T00:06:28.881Z,932.91
2018-12-22T00:07:28.837Z,932.96
2018-12-22T00:08:28.816Z,932.86
2018-12-22T00:09:28.817Z,932.81
2018-12-22T00:10:28.826Z,932.96
2018-12-22T00:11:28.813Z,932.95
2018-12-22T00:12:28.830Z,933.00
2018-12-22T00:13:28.807Z,933.04
2018-12-22T00:14:28.784Z,933.08
2018-12-22T00:15:28.817Z,933.02
2018-12-22T00:16:28.786Z,933.18
2018-12-22T00:17:28.812Z,933.28
2018-12-22T00:18:28.793Z,933.52
2018-12-22T00:19:28.787Z,933.60
2018-12-22T00:20:28.828Z,933.61
2018-12-22T00:21:28.771Z,933.74
2018-12-22T00:22:28.810Z,933.53
2018-12-22T00:23:28.760Z,933.52
2018-12-22T00:24:28.753Z,933.48
2018-12-22T00:25:28.738Z,933.35
2018-12-22T00:26:28.775Z,933.36
2018-12-22T00:27:28.747Z,933.41
2018-12-22T00:28:28.725Z,933.35
2018-12-22T00:29:28.714Z,933.36
2018-12-22T00:30:28.743Z,933.32
2018-12-22T00:31:28.769Z,933.34
2018-12-22T00:32:28.984Z,933.22
2018-12-22T00:33:28.695Z,933.23
2018-12-22T00:34:28.706Z,933.23
2018-12-22T00:35:28.692Z,933.17
2018-12-22T00:36:28.662Z,933.14
2018-12-22T00:37:28.655Z,933.10
2018-12-22T00:38:28.688Z,933.11
2018-12-22T00:39:28.644Z,933.07
2018-12-22T00:40:28.660Z,933.02
2018-12-22T00:41:28.656Z,933.01
2018-12-22T00:42:28.685Z,932.97
2018-12-22T00:43:28.657Z,933.00
2018-12-22T00:44:28.628Z,932.96
2018-12-22T00:45:28.623Z,932.96
2018-12-22T00:46:28.634Z,932.96
2018-12-22T00:47:28.605Z,932.97
2018-12-22T00:48:28.668Z,933.00
2018-12-22T00:49:28.616Z,933.00
2018-12-22T00:50:28.593Z,932.98
2018-12-22T00:51:28.574Z,932.95
2018-12-22T00:52:28.585Z,932.93
2018-12-22T00:53:28.563Z,932.89
2018-12-22T00:54:28.572Z,932.79
2018-12-22T00:55:28.543Z,932.71
2018-12-22T00:56:28.552Z,932.64
2018-12-22T00:57:28.575Z,932.61
2018-12-22T00:58:30.841Z,932.61
2018-12-22T00:59:28.739Z,932.58
2018-12-22T01:00:28.516Z,932.51
2018-12-22T01:01:28.509Z,932.53
2018-12-22T01:02:28.515Z,932.56
2018-12-22T01:03:28.514Z,932.59
2018-12-22T01:04:28.489Z,932.59
2018-12-22T01:05:28.497Z,932.54
2018-12-22T01:06:28.488Z,932.53
2018-12-22T01:07:28.461Z,932.54
2018-12-22T01:08:28.514Z,932.49
2018-12-22T01:09:28.447Z,932.47
2018-12-22T01:10:28.455Z,932.47
2018-12-22T01:11:28.449Z,932.49
2018-12-22T01:12:28.444Z,932.51
2018-12-22T01:13:28.447Z,932.50
2018-12-22T01:14:28.428Z,932.54
2018-12-22T01:15:28.439Z,932.57
2018-12-22T01:16:28.433Z,932.57
2018-12-22T01:17:28.423Z,932.52
2018-12-22T01:18:28.422Z,932.53
2018-12-22T01:19:28.424Z,932.50
2018-12-22T01:20:28.403Z,932.51
2018-12-22T01:21:28.395Z,932.53
2018-12-22T01:22:28.360Z,932.56
2018-12-22T01:23:28.400Z,932.53
2018-12-22T01:24:28.397Z,932.49
2018-12-22T01:25:28.372Z,932.43
2018-12-22T01:26:28.369Z,932.46
2018-12-22T01:27:28.375Z,932.45
2018-12-22T01:28:28.327Z,932.44
2018-12-22T01:29:28.390Z,932.43
2018-12-22T01:30:28.319Z,932.39
2018-12-22T01:31:28.338Z,932.43
2018-12-22T01:32:28.333Z,932.41
2018-12-22T01:33:28.330Z,932.40
2018-12-22T01:34:28.295Z,932.37
2018-12-22T01:35:28.315Z,932.39
2018-12-22T01:36:28.291Z,932.39
2018-12-22T01:37:28.273Z,932.37
2018-12-22T01:38:28.288Z,932.38
2018-12-22T01:39:28.289Z,932.37
2018-12-22T01:40:28.290Z,932.34
2018-12-22T01:41:28.279Z,932.31
2018-12-22T01:42:28.253Z,932.31
2018-12-22T01:43:28.304Z,932.29
2018-12-22T01:44:28.272Z,932.31
2018-12-22T01:45:28.244Z,932.29
2018-12-22T01:46:28.251Z,932.29
2018-12-22T01:47:28.243Z,932.29
2018-12-22T01:48:28.225Z,932.28
2018-12-22T01:49:28.218Z,932.30
2018-12-22T01:50:28.222Z,932.29
2018-12-22T01:51:28.201Z,932.31
2018-12-22T01:52:28.205Z,932.35
2018-12-22T01:53:28.195Z,932.39
2018-12-22T01:54:28.204Z,932.39
2018-12-22T01:55:28.193Z,932.38
2018-12-22T01:56:28.187Z,932.42
2018-12-22T01:57:28.211Z,932.35
2018-12-22T01:58:28.186Z,932.39
2018-12-22T01:59:28.143Z,932.39
2018-12-22T02:00:28.159Z,932.39
2018-12-22T02:01:28.154Z,932.36
2018-12-22T02:02:28.177Z,932.39
2018-12-22T02:03:28.137Z,932.40
2018-12-22T02:04:28.133Z,932.38
2018-12-22T02:05:28.133Z,932.39
2018-12-22T02:06:28.123Z,932.35
2018-12-22T02:07:28.104Z,932.37
2018-12-22T02:08:28.100Z,932.35
2018-12-22T02:09:28.098Z,932.34
2018-12-22T02:10:28.080Z,932.38
2018-12-22T02:11:28.096Z,932.40
2018-12-22T02:12:28.090Z,932.36
2018-12-22T02:13:28.061Z,932.35
2018-12-22T02:14:28.062Z,932.32
2018-12-22T02:15:28.052Z,932.26
2018-12-22T02:16:28.055Z,932.20
2018-12-22T02:17:28.045Z,932.17
2018-12-22T02:18:28.063Z,932.15
2018-12-22T02:19:28.030Z,932.17
2018-12-22T02:20:28.025Z,932.18
2018-12-22T02:21:28.026Z,932.17
2018-12-22T02:22:28.007Z,932.18
2018-12-22T02:23:28.010Z,932.20
2018-12-22T02:24:28.125Z,932.15
2018-12-22T02:25:28.011Z,932.17
2018-12-22T02:26:27.974Z,932.10
2018-12-22T02:27:28.086Z,932.11
2018-12-22T02:28:27.985Z,932.07
2018-12-22T02:29:28.014Z,932.03
2018-12-22T02:30:27.961Z,932.04
2018-12-22T02:31:27.986Z,932.05
2018-12-22T02:32:27.966Z,932.02
2018-12-22T02:33:27.942Z,932.03
2018-12-22T02:34:27.955Z,932.03
2018-12-22T02:35:27.929Z,931.99
2018-12-22T02:36:27.946Z,932.00
2018-12-22T02:37:27.905Z,932.00
2018-12-22T02:38:27.934Z,932.01
2018-12-22T02:39:27.926Z,932.05
2018-12-22T02:40:27.906Z,932.09
2018-12-22T02:41:27.916Z,932.13
2018-12-22T02:42:27.887Z,932.16
2018-12-22T02:43:27.929Z,932.19
2018-12-22T02:44:27.897Z,932.18
2018-12-22T02:45:27.890Z,932.15
2018-12-22T02:46:27.887Z,932.18
2018-12-22T02:47:27.877Z,932.14
2018-12-22T02:48:27.846Z,932.11
2018-12-22T02:49:27.850Z,932.10
2018-12-22T02:50:27.848Z,932.07
2018-12-22T02:51:27.830Z,932.05
2018-12-22T02:52:27.841Z,932.03
2018-12-22T02:53:27.823Z,932.04
2018-12-22T02:54:27.824Z,932.01
2018-12-22T02:55:27.811Z,932.00
2018-12-22T02:56:27.818Z,932.01
2018-12-22T02:57:27.813Z,932.03
2018-12-22T02:58:27.794Z,932.09
2018-12-22T02:59:27.801Z,932.12
2018-12-22T03:00:27.800Z,932.14
2018-12-22T03:01:27.811Z,932.09
2018-12-22T03:02:27.822Z,932.06
2018-12-22T03:03:27.777Z,932.10
2018-12-22T03:04:27.771Z,932.05
2018-12-22T03:05:27.747Z,932.05
2018-12-22T03:06:27.761Z,932.01
2018-12-22T03:07:27.804Z,932.05
2018-12-22T03:08:27.786Z,932.02
2018-12-22T03:09:27.730Z,932.03
2018-12-22T03:10:27.779Z,932.02
2018-12-22T03:11:27.734Z,932.00
2018-12-22T03:12:27.718Z,931.97
2018-12-22T03:13:27.726Z,931.95
2018-12-22T03:14:27.725Z,931.92
2018-12-22T03:15:27.691Z,931.91
2018-12-22T03:16:27.712Z,931.92
2018-12-22T03:17:27.740Z,931.94
2018-12-22T03:18:27.707Z,931.90
2018-12-22T03:19:27.679Z,931.88
2018-12-22T03:20:27.686Z,931.85
2018-12-22T03:21:27.673Z,931.88
2018-12-22T03:22:27.683Z,931.82
2018-12-22T03:23:27.652Z,931.80
2018-12-22T03:24:27.675Z,931.79
2018-12-22T03:25:27.656Z,931.73
2018-12-22T03:26:27.698Z,931.74
2018-12-22T03:27:27.660Z,931.71
2018-12-22T03:28:27.613Z,931.69
2018-12-22T03:29:27.624Z,931.64
2018-12-22T03:30:27.634Z,931.59
2018-12-22T03:31:27.615Z,931.57
2018-12-22T03:32:27.614Z,931.57
2018-12-22T03:33:27.601Z,931.56
2018-12-22T03:34:27.594Z,931.57
2018-12-22T03:35:27.636Z,931.55
2018-12-22T03:36:27.560Z,931.50
2018-12-22T03:37:27.614Z,931.47
2018-12-22T03:38:27.564Z,931.41
2018-12-22T03:39:27.558Z,931.36
2018-12-22T03:40:27.560Z,931.36
2018-12-22T03:41:27.558Z,931.38
2018-12-22T03:42:27.557Z,931.35
2018-12-22T03:43:27.555Z,931.36
2018-12-22T03:44:27.517Z,931.33
2018-12-22T03:45:27.515Z,931.31
2018-12-22T03:46:27.504Z,931.34
2018-12-22T03:47:27.503Z,931.35
2018-12-22T03:48:27.495Z,931.38
2018-12-22T03:49:27.505Z,931.38
2018-12-22T03:50:27.484Z,931.38
2018-12-22T03:51:27.497Z,931.38
2018-12-22T03:52:27.495Z,931.38
2018-12-22T03:53:27.464Z,931.41
2018-12-22T03:54:27.512Z,931.37
2018-12-22T03:55:27.497Z,931.38
2018-12-22T03:56:27.504Z,931.35
2018-12-22T03:57:27.465Z,931.39
2018-12-22T03:58:27.461Z,931.37
2018-12-22T03:59:27.489Z,931.38
2018-12-22T04:00:27.431Z,931.42
2018-12-22T04:01:27.438Z,931.41
2018-12-22T04:02:27.468Z,931.39
2018-12-22T04:03:27.402Z,931.37
2018-12-22T04:04:27.444Z,931.38
2018-12-22T04:05:27.400Z,931.40
2018-12-22T04:06:27.451Z,931.40
2018-12-22T04:07:27.410Z,931.36
2018-12-22T04:08:27.376Z,931.39
2018-12-22T04:09:27.375Z,931.39
2018-12-22T04:10:27.387Z,931.36
2018-12-22T04:11:27.382Z,931.37
2018-12-22T04:12:27.380Z,931.37
2018-12-22T04:13:27.372Z,931.36
2018-12-22T04:14:27.362Z,931.35
2018-12-22T04:15:27.360Z,931.32
2018-12-22T04:16:27.347Z,931.35
2018-12-22T04:17:27.332Z,931.32
2018-12-22T04:18:27.310Z,931.28
2018-12-22T04:19:27.322Z,931.27
2018-12-22T04:20:27.334Z,931.27
2018-12-22T04:21:27.310Z,931.21
2018-12-22T04:22:27.294Z,931.17
2018-12-22T04:23:27.297Z,931.19
2018-12-22T04:24:27.270Z,931.19
2018-12-22T04:25:27.278Z,931.19
2018-12-22T04:26:27.260Z,931.15
2018-12-22T04:27:27.274Z,931.16
2018-12-22T04:28:27.266Z,931.10
2018-12-22T04:29:33.761Z,931.07
2018-12-22T04:30:27.226Z,931.08
2018-12-22T04:31:27.229Z,931.09
2018-12-22T04:32:27.227Z,931.12
2018-12-22T04:33:27.233Z,931.08
2018-12-22T04:34:27.218Z,931.10
2018-12-22T04:35:27.221Z,931.08
2018-12-22T04:36:27.224Z,931.00
2018-12-22T04:37:27.195Z,930.92
2018-12-22T04:38:27.190Z,930.92
2018-12-22T04:39:27.179Z,930.88
2018-12-22T04:40:27.197Z,930.83
2018-12-22T04:41:27.194Z,930.83
2018-12-22T04:42:27.184Z,930.82
2018-12-22T04:43:27.179Z,930.79
2018-12-22T04:44:27.183Z,930.73
2018-12-22T04:45:27.150Z,930.72
2018-12-22T04:46:27.177Z,930.73
2018-12-22T04:47:27.159Z,930.74
2018-12-22T04:48:27.133Z,930.70
2018-12-22T04:49:27.125Z,930.70
2018-12-22T04:50:27.139Z,930.64
2018-12-22T04:51:27.118Z,930.61
2018-12-22T04:52:27.089Z,930.61
2018-12-22T04:53:27.108Z,930.62
2018-12-22T04:54:27.112Z,930.61
2018-12-22T04:55:27.097Z,930.64
2018-12-22T04:56:27.091Z,930.65
2018-12-22T04:57:27.073Z,930.63
2018-12-22T04:58:27.079Z,930.66
2018-12-22T04:59:27.090Z,930.68
2018-12-22T05:00:27.051Z,930.65
2018-12-22T05:01:27.059Z,930.65
2018-12-22T05:02:27.036Z,930.66
2018-12-22T05:03:27.056Z,930.61
2018-12-22T05:04:27.045Z,930.61
2018-12-22T05:05:27.032Z,930.61
2018-12-22T05:06:27.022Z,930.53
2018-12-22T05:07:27.017Z,930.51
2018-12-22T05:08:27.003Z,930.49
2018-12-22T05:09:27.004Z,930.49
2018-12-22T05:10:27.012Z,930.45
2018-12-22T05:11:26.980Z,930.43
2018-12-22T05:12:26.985Z,930.44
2018-12-22T05:13:27.237Z,930.39
2018-12-22T05:14:27.000Z,930.39
2018-12-22T05:15:26.966Z,930.39
2018-12-22T05:16:26.971Z,930.40
2018-12-22T05:17:26.964Z,930.35
2018-12-22T05:18:26.962Z,930.31
2018-12-22T05:19:26.953Z,930.30
2018-12-22T05:20:26.933Z,930.29
2018-12-22T05:21:26.938Z,930.31
2018-12-22T05:22:26.920Z,930.36
2018-12-22T05:23:26.916Z,930.32
2018-12-22T05:24:26.900Z,930.34
2018-12-22T05:25:26.915Z,930.29
2018-12-22T05:26:26.943Z,930.29
2018-12-22T05:27:26.888Z,930.27
2018-12-22T05:28:26.875Z,930.30
2018-12-22T05:29:26.892Z,930.31
2018-12-22T05:30:26.913Z,930.32
2018-12-22T05:31:26.889Z,930.35
2018-12-22T05:32:26.878Z,930.37
2018-12-22T05:33:26.863Z,930.37
2018-12-22T05:34:26.857Z,930.37
2018-12-22T05:35:26.850Z,930.39
2018-12-22T05:36:26.827Z,930.37
2018-12-22T05:37:26.857Z,930.35
2018-12-22T05:38:26.817Z,930.38
2018-12-22T05:39:26.823Z,930.34
2018-12-22T05:40:26.830Z,930.29
2018-12-22T05:41:26.813Z,930.31
2018-12-22T05:42:26.861Z,930.35
2018-12-22T05:43:26.823Z,930.33
2018-12-22T05:44:27.029Z,930.29
2018-12-22T05:45:26.804Z,930.31
2018-12-22T05:46:26.834Z,930.32
2018-12-22T05:47:26.792Z,930.30
2018-12-22T05:48:26.764Z,930.29
2018-12-22T05:49:26.818Z,930.27
2018-12-22T05:50:26.764Z,930.25
2018-12-22T05:51:26.745Z,930.24
2018-12-22T05:52:26.726Z,930.19
2018-12-22T05:53:26.724Z,930.23
2018-12-22T05:54:26.725Z,930.20
2018-12-22T05:55:26.703Z,930.23
2018-12-22T05:56:26.711Z,930.24
2018-12-22T05:57:26.689Z,930.26
2018-12-22T05:58:26.703Z,930.25
2018-12-22T05:59:26.717Z,930.28
2018-12-22T06:00:26.720Z,930.22
2018-12-22T06:01:26.736Z,930.22
2018-12-22T06:02:26.680Z,930.17
2018-12-22T06:03:26.663Z,930.15
2018-12-22T06:04:26.673Z,930.13
2018-12-22T06:05:26.666Z,930.05
2018-12-22T06:06:26.717Z,930.04
2018-12-22T06:07:26.659Z,930.05
2018-12-22T06:08:26.661Z,930.00
2018-12-22T06:09:26.686Z,929.94
2018-12-22T06:10:26.647Z,929.96
2018-12-22T06:11:26.937Z,929.87
2018-12-22T06:12:26.628Z,929.82
2018-12-22T06:13:26.671Z,929.78
2018-12-22T06:14:26.636Z,929.78
2018-12-22T06:15:26.663Z,929.82
2018-12-22T06:16:26.607Z,929.76
2018-12-22T06:17:27.545Z,929.76
2018-12-22T06:18:26.584Z,929.76
2018-12-22T06:19:26.574Z,929.73
2018-12-22T06:20:26.578Z,929.84
2018-12-22T06:21:26.562Z,929.82
2018-12-22T06:22:26.581Z,929.86
2018-12-22T06:23:26.775Z,929.92
2018-12-22T06:24:26.568Z,929.93
2018-12-22T06:25:26.553Z,929.96
2018-12-22T06:26:26.515Z,929.98
2018-12-22T06:27:26.559Z,930.00
2018-12-22T06:28:26.578Z,930.03
2018-12-22T06:29:26.528Z,930.05
2018-12-22T06:30:26.524Z,930.02
2018-12-22T06:31:26.512Z,930.04
2018-12-22T06:32:26.490Z,930.03
2018-12-22T06:33:26.511Z,929.99
2018-12-22T06:34:26.489Z,930.00
2018-12-22T06:35:26.471Z,930.00
2018-12-22T06:36:26.489Z,930.03
2018-12-22T06:37:26.473Z,930.04
2018-12-22T06:38:26.444Z,930.07
2018-12-22T06:39:26.481Z,930.07
2018-12-22T06:40:26.465Z,930.12
2018-12-22T06:41:26.438Z,930.11
2018-12-22T06:42:26.482Z,930.18
2018-12-22T06:43:26.440Z,930.21
2018-12-22T06:44:26.476Z,930.19
2018-12-22T06:45:26.438Z,930.20
2018-12-22T06:46:26.484Z,930.25
2018-12-22T06:47:26.420Z,930.23
2018-12-22T06:48:26.424Z,930.28
2018-12-22T06:49:26.408Z,930.33
2018-12-22T06:50:26.411Z,930.36
2018-12-22T06:51:26.398Z,930.35
2018-12-22T06:52:26.422Z,930.39
2018-12-22T06:53:26.361Z,930.41
2018-12-22T06:54:26.659Z,930.46
2018-12-22T06:55:26.358Z,930.46
2018-12-22T06:56:26.368Z,930.48
2018-12-22T06:57:26.348Z,930.51
2018-12-22T06:58:26.341Z,930.53
2018-12-22T06:59:26.394Z,930.54
2018-12-22T07:00:26.436Z,930.53
2018-12-22T07:01:26.346Z,930.57
2018-12-22T07:02:26.333Z,930.54
2018-12-22T07:03:26.308Z,930.56
2018-12-22T07:04:26.300Z,930.48
2018-12-22T07:05:26.370Z,930.50
2018-12-22T07:06:26.277Z,930.47
2018-12-22T07:07:26.296Z,930.46
2018-12-22T07:08:26.297Z,930.47
2018-12-22T07:09:26.296Z,930.48
2018-12-22T07:10:26.311Z,930.49
2018-12-22T07:11:26.262Z,930.53
2018-12-22T07:12:26.265Z,930.53
2018-12-22T07:13:26.248Z,930.51
2018-12-22T07:14:26.292Z,930.53
2018-12-22T07:15:26.234Z,930.53
2018-12-22T07:16:26.231Z,930.60
2018-12-22T07:17:26.238Z,930.57
2018-12-22T07:18:26.242Z,930.60
2018-12-22T07:19:26.229Z,930.63
2018-12-22T07:20:26.230Z,930.60
2018-12-22T07:21:26.204Z,930.61
2018-12-22T07:22:26.206Z,930.62
2018-12-22T07:23:26.199Z,930.62
2018-12-22T07:24:26.191Z,930.64
2018-12-22T07:25:26.185Z,930.65
2018-12-22T07:26:26.434Z,930.65
2018-12-22T07:27:26.223Z,930.66
2018-12-22T07:28:26.176Z,930.66
2018-12-22T07:29:26.202Z,930.64
2018-12-22T07:30:26.624Z,930.66
2018-12-22T07:31:26.148Z,930.63
2018-12-22T07:32:26.158Z,930.67
2018-12-22T07:33:26.140Z,930.71
2018-12-22T07:34:26.141Z,930.68
2018-12-22T07:35:26.105Z,930.75
2018-12-22T07:36:26.131Z,930.75
2018-12-22T07:37:26.434Z,930.75
2018-12-22T07:38:26.132Z,930.77
2018-12-22T07:39:26.105Z,930.82
2018-12-22T07:40:26.093Z,930.87
2018-12-22T07:41:26.099Z,930.88
2018-12-22T07:42:26.097Z,930.93
2018-12-22T07:43:26.124Z,930.96
2018-12-22T07:44:26.067Z,930.98
2018-12-22T07:45:26.091Z,931.00
2018-12-22T07:46:26.049Z,931.01
2018-12-22T07:47:26.045Z,931.03
2018-12-22T07:48:26.303Z,931.04
2018-12-22T07:49:26.065Z,931.08
2018-12-22T07:50:26.060Z,931.09
2018-12-22T07:51:26.038Z,931.18
2018-12-22T07:52:26.028Z,931.23
2018-12-22T07:53:26.034Z,931.25
2018-12-22T07:54:26.013Z,931.22
2018-12-22T07:55:26.057Z,931.16
2018-12-22T07:56:26.009Z,931.15
2018-12-22T07:57:26.004Z,931.12
2018-12-22T07:58:25.979Z,931.13
2018-12-22T07:59:25.978Z,931.16
2018-12-22T08:00:34.596Z,931.12
2018-12-22T08:01:25.961Z,931.11
2018-12-22T08:02:25.969Z,931.16
2018-12-22T08:03:26.008Z,931.18
2018-12-22T08:04:25.936Z,931.17
2018-12-22T08:05:25.949Z,931.15
2018-12-22T08:06:25.987Z,931.14
2018-12-22T08:07:25.950Z,931.17
2018-12-22T08:08:25.946Z,931.32
2018-12-22T08:09:25.920Z,931.40
2018-12-22T08:10:25.922Z,931.36
2018-12-22T08:11:25.919Z,931.29
2018-12-22T08:12:25.914Z,931.48
2018-12-22T08:13:25.903Z,931.54
2018-12-22T08:14:25.900Z,931.43
2018-12-22T08:15:25.894Z,931.38
2018-12-22T08:16:25.884Z,931.47
2018-12-22T08:17:25.867Z,931.63
2018-12-22T08:18:25.863Z,931.64
2018-12-22T08:19:25.841Z,931.43
2018-12-22T08:20:25.899Z,931.43
2018-12-22T08:21:25.852Z,931.58
2018-12-22T08:22:25.834Z,931.64
2018-12-22T08:23:25.829Z,931.71
2018-12-22T08:24:25.832Z,931.64
2018-12-22T08:25:25.812Z,931.56
2018-12-22T08:26:25.828Z,931.59
2018-12-22T08:27:25.814Z,931.64
2018-12-22T08:28:25.800Z,931.61
2018-12-22T08:29:25.796Z,931.67
2018-12-22T08:30:25.783Z,931.77
2018-12-22T08:31:25.778Z,931.74
2018-12-22T08:32:25.777Z,931.71
2018-12-22T08:33:25.773Z,931.66
2018-12-22T08:34:25.759Z,931.61
2018-12-22T08:35:25.753Z,931.64
2018-12-22T08:36:25.755Z,931.61
2018-12-22T08:37:25.748Z,931.68
2018-12-22T08:38:25.706Z,931.70
2018-12-22T08:39:25.734Z,931.70
2018-12-22T08:40:25.714Z,931.77
2018-12-22T08:41:25.709Z,931.82
2018-12-22T08:42:25.685Z,931.86
2018-12-22T08:43:25.725Z,931.81
2018-12-22T08:44:25.712Z,931.79
2018-12-22T08:45:25.702Z,931.77
2018-12-22T08:46:25.711Z,931.74
2018-12-22T08:47:25.733Z,931.74
2018-12-22T08:48:25.681Z,931.71
2018-12-22T08:49:25.678Z,931.69
2018-12-22T08:50:25.645Z,931.69
2018-12-22T08:51:25.646Z,931.65
2018-12-22T08:52:25.640Z,931.70
2018-12-22T08:53:25.637Z,931.76
2018-12-22T08:54:25.633Z,931.82
2018-12-22T08:55:25.641Z,931.94
2018-12-22T08:56:25.610Z,931.98
2018-12-22T08:57:25.629Z,931.99
2018-12-22T08:58:25.596Z,931.93
2018-12-22T08:59:25.614Z,931.92
2018-12-22T09:00:25.608Z,931.92
2018-12-22T09:01:25.589Z,931.93
2018-12-22T09:02:25.583Z,931.89
2018-12-22T09:03:25.578Z,931.92
2018-12-22T09:04:25.601Z,931.97
2018-12-22T09:05:25.568Z,931.99
2018-12-22T09:06:25.533Z,932.00
2018-12-22T09:07:25.547Z,932.00
2018-12-22T09:08:25.544Z,931.99
2018-12-22T09:09:25.525Z,931.99
2018-12-22T09:10:25.574Z,932.01
2018-12-22T09:11:25.529Z,932.03
2018-12-22T09:12:25.503Z,932.07
2018-12-22T09:13:25.555Z,932.04
2018-12-22T09:14:25.544Z,932.05
2018-12-22T09:15:25.484Z,932.05
2018-12-22T09:16:25.488Z,932.06
2018-12-22T09:17:25.483Z,932.05
2018-12-22T09:18:25.483Z,932.05
2018-12-22T09:19:25.463Z,932.05
2018-12-22T09:20:25.447Z,932.02
2018-12-22T09:21:25.456Z,932.04
2018-12-22T09:22:25.462Z,932.01
2018-12-22T09:23:25.416Z,931.98
2018-12-22T09:24:25.482Z,931.98
2018-12-22T09:25:25.427Z,931.97
2018-12-22T09:26:25.429Z,932.01
2018-12-22T09:27:25.407Z,932.02
2018-12-22T09:28:25.399Z,932.04
2018-12-22T09:29:25.401Z,932.07
2018-12-22T09:30:25.411Z,932.00
2018-12-22T09:31:25.373Z,932.01
2018-12-22T09:32:25.372Z,931.96
2018-12-22T09:33:25.373Z,931.93
2018-12-22T09:34:25.375Z,931.95
2018-12-22T09:35:25.358Z,931.97
2018-12-22T09:36:25.372Z,931.99
2018-12-22T09:37:25.351Z,932.01
2018-12-22T09:38:25.348Z,931.99
2018-12-22T09:39:25.324Z,931.98
2018-12-22T09:40:25.337Z,932.00
2018-12-22T09:41:25.321Z,931.94
2018-12-22T09:42:25.311Z,931.92
2018-12-22T09:43:25.338Z,931.92
2018-12-22T09:44:25.317Z,931.89
2018-12-22T09:45:25.305Z,931.93
2018-12-22T09:46:25.308Z,931.89
2018-12-22T09:47:25.298Z,931.92
2018-12-22T09:48:25.268Z,931.90
2018-12-22T09:49:25.280Z,931.92
2018-12-22T09:50:25.293Z,931.89
2018-12-22T09:51:25.257Z,931.93
2018-12-22T09:52:25.274Z,931.94
2018-12-22T09:53:25.230Z,931.91
2018-12-22T09:54:25.239Z,931.94
2018-12-22T09:55:25.246Z,931.96
2018-12-22T09:56:25.228Z,931.94
2018-12-22T09:57:25.242Z,931.92
2018-12-22T09:58:25.239Z,931.90
2018-12-22T09:59:25.214Z,931.90
2018-12-22T10:00:25.244Z,931.92
2018-12-22T10:01:25.203Z,931.88
2018-12-22T10:02:25.196Z,931.91
2018-12-22T10:03:25.195Z,931.88
2018-12-22T10:04:25.194Z,931.84
2018-12-22T10:05:25.198Z,931.84
2018-12-22T10:06:25.173Z,931.81
2018-12-22T10:07:25.181Z,931.76
2018-12-22T10:08:25.209Z,931.82
2018-12-22T10:09:25.159Z,931.82
2018-12-22T10:10:25.158Z,931.79
2018-12-22T10:11:25.157Z,931.83
2018-12-22T10:12:25.121Z,931.82
2018-12-22T10:13:25.126Z,931.86
2018-12-22T10:14:25.111Z,931.84
2018-12-22T10:15:25.126Z,931.87
2018-12-22T10:16:25.118Z,931.90
2018-12-22T10:17:25.095Z,931.91
2018-12-22T10:18:25.095Z,931.92
2018-12-22T10:19:25.090Z,931.96
2018-12-22T10:20:25.103Z,932.01
2018-12-22T10:21:25.096Z,932.03
2018-12-22T10:22:25.082Z,932.06
2018-12-22T10:23:25.091Z,932.06
2018-12-22T10:24:25.053Z,932.09
2018-12-22T10:25:25.098Z,932.10
2018-12-22T10:26:25.098Z,932.12
2018-12-22T10:27:25.043Z,932.14
2018-12-22T10:28:25.051Z,932.11
2018-12-22T10:29:25.021Z,932.13
2018-12-22T10:30:25.013Z,932.12
2018-12-22T10:31:25.015Z,932.14
2018-12-22T10:32:25.009Z,932.13
2018-12-22T10:33:24.991Z,932.10
2018-12-22T10:34:25.001Z,932.08
2018-12-22T10:35:25.049Z,932.11
2018-12-22T10:36:25.009Z,932.13
2018-12-22T10:37:25.051Z,932.10
2018-12-22T10:38:25.002Z,932.10
2018-12-22T10:39:24.963Z,932.09
2018-12-22T10:40:24.968Z,932.09
2018-12-22T10:41:24.962Z,932.13
2018-12-22T10:42:24.971Z,932.14
2018-12-22T10:43:24.973Z,932.11
2018-12-22T10:44:24.936Z,932.09
2018-12-22T10:45:24.936Z,932.10
2018-12-22T10:46:24.931Z,932.08
2018-12-22T10:47:24.937Z,932.13
2018-12-22T10:48:25.006Z,932.08
2018-12-22T10:49:24.945Z,932.10
2018-12-22T10:50:24.915Z,932.10
2018-12-22T10:51:24.918Z,932.09
2018-12-22T10:52:24.908Z,932.05
2018-12-22T10:53:24.922Z,932.07
2018-12-22T10:54:24.921Z,932.05
2018-12-22T10:55:24.888Z,932.09
2018-12-22T10:56:24.883Z,932.10
2018-12-22T10:57:24.894Z,932.09
2018-12-22T10:58:24.882Z,932.09
2018-12-22T10:59:24.879Z,932.07
2018-12-22T11:00:24.851Z,932.10
2018-12-22T11:01:26.645Z,932.11
2018-12-22T11:02:24.849Z,932.15
2018-12-22T11:03:24.836Z,932.17
2018-12-22T11:04:24.854Z,932.15
2018-12-22T11:05:24.860Z,932.20
2018-12-22T11:06:24.847Z,932.17
2018-12-22T11:07:24.836Z,932.20
2018-12-22T11:08:24.826Z,932.20
2018-12-22T11:09:24.837Z,932.21
2018-12-22T11:10:24.798Z,932.18
2018-12-22T11:11:24.815Z,932.19
2018-12-22T11:12:24.807Z,932.18
2018-12-22T11:13:24.806Z,932.16
2018-12-22T11:14:24.799Z,932.14
2018-12-22T11:15:24.814Z,932.16
2018-12-22T11:16:24.773Z,932.19
2018-12-22T11:17:24.817Z,932.21
2018-12-22T11:18:24.776Z,932.24
2018-12-22T11:19:24.766Z,932.21
2018-12-22T11:20:24.780Z,932.26
2018-12-22T11:21:24.760Z,932.23
2018-12-22T11:22:24.738Z,932.24
2018-12-22T11:23:24.775Z,932.23
2018-12-22T11:24:24.749Z,932.21
2018-12-22T11:25:24.763Z,932.20
2018-12-22T11:26:24.721Z,932.23
2018-12-22T11:27:24.736Z,932.13
2018-12-22T11:28:24.754Z,932.13
2018-12-22T11:29:24.750Z,932.20
2018-12-22T11:30:24.720Z,932.21
2018-12-22T11:31:24.719Z,932.20
2018-12-22T11:32:24.710Z,932.21
2018-12-22T11:33:24.718Z,932.20
2018-12-22T11:34:24.716Z,932.23
2018-12-22T11:35:24.715Z,932.25
2018-12-22T11:36:24.700Z,932.23
2018-12-22T11:37:24.690Z,932.27
2018-12-22T11:38:24.695Z,932.25
2018-12-22T11:39:24.716Z,932.20
2018-12-22T11:40:24.696Z,932.24
2018-12-22T11:41:24.697Z,932.27
2018-12-22T11:42:24.677Z,932.23
2018-12-22T11:43:24.682Z,932.23
2018-12-22T11:44:24.675Z,932.24
2018-12-22T11:45:24.663Z,932.20
2018-12-22T11:46:24.673Z,932.11
2018-12-22T11:47:24.723Z,932.13
2018-12-22T11:48:24.658Z,932.11
2018-12-22T11:49:24.690Z,932.13
2018-12-22T11:50:24.648Z,932.15
2018-12-22T11:51:24.671Z,932.11
2018-12-22T11:52:24.659Z,932.11
2018-12-22T11:53:24.671Z,932.14
2018-12-22T11:54:24.657Z,932.16
2018-12-22T11:55:24.655Z,932.16
2018-12-22T11:56:24.646Z,932.16
2018-12-22T11:57:24.657Z,932.13
2018-12-22T11:58:24.656Z,932.10
2018-12-22T11:59:24.636Z,932.13
2018-12-22T12:00:24.626Z,932.10
2018-12-22T12:01:24.652Z,932.10
2018-12-22T12:02:24.632Z,932.15
2018-12-22T12:03:24.624Z,932.12
2018-12-22T12:04:24.628Z,932.17
2018-12-22T12:05:24.648Z,932.16
2018-12-22T12:06:24.673Z,932.20
2018-12-22T12:07:24.632Z,932.23
2018-12-22T12:08:24.601Z,932.21
2018-12-22T12:09:24.619Z,932.21
2018-12-22T12:10:24.622Z,932.17
2018-12-22T12:11:24.660Z,932.12
2018-12-22T12:12:24.629Z,932.12
2018-12-22T12:13:24.645Z,932.18
2018-12-22T12:14:24.624Z,932.20
2018-12-22T12:15:24.615Z,932.25
2018-12-22T12:16:24.631Z,932.22
2018-12-22T12:17:24.629Z,932.30
2018-12-22T12:18:24.613Z,932.20
2018-12-22T12:19:24.602Z,932.26
2018-12-22T12:20:24.619Z,932.24
2018-12-22T12:21:24.621Z,932.22
2018-12-22T12:22:24.614Z,932.22
2018-12-22T12:23:24.623Z,932.15
2018-12-22T12:24:24.620Z,932.19
2018-12-22T12:25:24.599Z,932.15
2018-12-22T12:26:24.607Z,932.16
2018-12-22T12:27:24.634Z,932.19
2018-12-22T12:28:24.588Z,932.20